Time;durP1;ratioP1;P1;durP2;ratioP2;P2;SDS_P1;SDS_P2;PMS_P1;PMS_P2;Temp;Humidity;BMP_temperature;BMP_pressure;BME280_temperature;BME280_humidity;BME280_pressure;Samples;Min_cycle;Max_cycle;Signal;HPM_P1;HPM_P2
2022/06/02 00:01:29;;;;;;;8.88;5.40;;;;;;;8.80;100.00;154737.66;4898498;29;20070;-77
2022/06/02 00:04:18;;;;;;;8.55;5.35;;;;;;;8.70;100.00;154713.31;4945478;28;20030;-78
2022/06/02 00:07:05;;;;;;;8.02;5.45;;;;;;;8.71;100.00;154717.19;4935579;28;20065;-77
2022/06/02 00:09:58;;;;;;;9.80;5.40;;;;;;;8.63;100.00;154696.69;4899806;28;20440;-76
2022/06/02 00:12:47;;;;;;;9.68;5.75;;;;;;;8.58;100.00;154683.88;4915639;28;20031;-77
2022/06/02 00:15:20;;;;;;;8.55;6.18;;;;;;;8.50;100.00;154663.38;4931905;29;20047;-77
2022/06/02 00:18:21;;;;;;;10.35;5.88;;;;;;;8.42;100.00;154644.19;4945855;28;20066;-76
2022/06/02 00:20:57;;;;;;;8.13;5.80;;;;;;;8.40;100.00;154639.00;4874052;29;20134;-76
2022/06/02 00:23:25;;;;;;;10.75;6.70;;;;;;;8.34;100.00;154624.91;4886262;29;20154;-78
2022/06/02 00:26:13;;;;;;;12.82;7.07;;;;;;;8.22;100.00;154592.88;4900043;28;20062;-78
2022/06/02 00:29:07;;;;;;;8.85;6.50;;;;;;;8.19;100.00;154586.44;4901925;28;20107;-78
2022/06/02 00:31:41;;;;;;;7.32;6.45;;;;;;;8.16;100.00;154578.78;4932054;28;20039;-76
2022/06/02 00:34:30;;;;;;;7.65;6.28;;;;;;;8.12;100.00;154568.56;4924617;29;20036;-78
2022/06/02 00:37:11;;;;;;;8.90;6.47;;;;;;;8.08;100.00;154559.56;4923534;28;20055;-78
2022/06/02 00:39:38;;;;;;;10.68;7.43;;;;;;;7.97;100.00;154532.66;4947329;28;20124;-78
2022/06/02 00:42:29;;;;;;;8.35;6.50;;;;;;;7.91;100.00;154516.00;4926872;29;20953;-77
2022/06/02 00:45:05;;;;;;;10.23;6.95;;;;;;;7.86;100.00;154503.22;4912450;28;20047;-77
2022/06/02 00:48:11;;;;;;;10.20;7.00;;;;;;;7.81;100.00;154491.66;4929920;28;20036;-77
2022/06/02 00:50:59;;;;;;;10.63;7.25;;;;;;;7.81;100.00;154491.66;4925992;28;20046;-77
2022/06/02 00:53:39;;;;;;;10.10;7.63;;;;;;;7.80;100.00;154490.41;4917669;28;20124;-77
2022/06/02 00:59:26;;;;;;;11.23;7.57;;;;;;;7.70;100.00;154463.50;4944016;28;20478;-78
2022/06/02 01:01:53;;;;;;;11.00;7.50;;;;;;;7.62;100.00;154443.03;4929756;28;20418;-77
2022/06/02 01:04:19;;;;;;;11.20;7.57;;;;;;;7.54;100.00;154425.09;4924487;29;20031;-76
2022/06/02 01:07:03;;;;;;;12.80;7.65;;;;;;;7.47;100.00;154407.16;4911495;28;20567;-78
2022/06/02 01:09:46;;;;;;;12.15;8.13;;;;;;;7.46;100.00;154404.63;4940059;28;20038;-77
2022/06/02 01:12:54;;;;;;;10.02;7.93;;;;;;;7.39;100.00;154387.97;4927000;29;20510;-79
2022/06/02 01:15:46;;;;;;;12.27;7.93;;;;;;;7.35;100.00;154377.72;4921193;29;20334;-77
2022/06/02 01:18:20;;;;;;;11.60;7.75;;;;;;;7.31;100.00;154367.50;4915695;29;20039;-78
2022/06/02 01:21:26;;;;;;;10.98;8.38;;;;;;;7.32;100.00;154368.75;4921825;28;20383;-81
2022/06/02 01:24:03;;;;;;;9.80;8.38;;;;;;;7.26;100.00;154353.41;4943878;28;20043;-77
2022/06/02 01:26:48;;;;;;;12.82;8.77;;;;;;;7.19;100.00;154338.00;4934929;28;20043;-78
2022/06/02 01:29:35;;;;;;;10.43;8.05;;;;;;;7.09;100.00;154311.16;4943953;28;20049;-78
2022/06/02 01:32:07;;;;;;;13.85;8.98;;;;;;;7.06;100.00;154304.75;4937715;28;20041;-78
2022/06/02 01:34:48;;;;;;;14.43;9.63;;;;;;;6.94;100.00;154274.03;4957454;28;20128;-78
2022/06/02 01:37:21;;;;;;;11.95;9.60;;;;;;;6.95;100.00;154276.56;4954218;28;20035;-78
2022/06/02 01:40:06;;;;;;;11.48;9.55;;;;;;;6.92;100.00;154270.19;4945019;28;20065;-78
2022/06/02 01:42:56;;;;;;;11.85;10.05;;;;;;;6.95;100.00;154276.56;4941044;28;20043;-79
2022/06/02 01:45:39;;;;;;;14.13;9.82;;;;;;;6.86;100.00;154254.84;4956456;28;20075;-80
2022/06/02 01:48:22;;;;;;;15.93;9.30;;;;;;;6.90;100.00;154265.09;4960357;28;20030;-79
2022/06/02 01:51:10;;;;;;;12.52;9.55;;;;;;;6.87;100.00;154256.13;4916020;29;20050;-78
2022/06/02 01:53:55;;;;;;;13.57;9.68;;;;;;;6.82;100.00;154244.63;4956675;28;20070;-79
2022/06/02 01:56:37;;;;;;;12.00;9.38;;;;;;;6.77;100.00;154233.06;4955150;28;20027;-80
2022/06/02 01:59:18;;;;;;;12.75;9.85;;;;;;;6.70;100.00;154213.88;4936352;29;20465;-80
2022/06/02 02:02:06;;;;;;;11.15;9.73;;;;;;;6.66;100.00;154203.66;4950149;28;20043;-80
2022/06/02 02:04:47;;;;;;;11.82;9.60;;;;;;;6.72;100.00;154219.00;4938134;28;20055;-78
2022/06/02 02:07:31;;;;;;;13.27;9.73;;;;;;;6.68;100.00;154208.78;4958853;28;20047;-78
2022/06/02 02:10:18;;;;;;;11.50;8.80;;;;;;;6.63;100.00;154197.28;4939601;28;20413;-79
2022/06/02 02:13:10;;;;;;;16.35;10.10;;;;;;;6.57;100.00;154181.88;4918369;28;20141;-78
2022/06/02 02:16:01;;;;;;;12.23;9.63;;;;;;;6.55;100.00;154178.03;4922424;28;20043;-79
2022/06/02 02:18:53;;;;;;;13.48;9.73;;;;;;;6.51;100.00;154166.53;4950157;28;20074;-80
2022/06/02 02:21:31;;;;;;;11.55;9.82;;;;;;;6.51;100.00;154167.81;4910156;29;20446;-79
2022/06/02 02:24:07;;;;;;;10.98;9.82;;;;;;;6.50;100.00;154165.28;4947648;28;20034;-79
2022/06/02 02:26:37;;;;;;;15.18;10.52;;;;;;;6.50;100.00;154165.28;4909847;28;20043;-79
2022/06/02 02:29:16;;;;;;;12.20;10.70;;;;;;;6.49;100.00;154161.44;4932811;29;20046;-79
2022/06/02 02:32:10;;;;;;;11.88;10.32;;;;;;;6.48;100.00;154160.16;4935599;28;20051;-79
2022/06/02 02:35:01;;;;;;;11.32;10.18;;;;;;;6.46;100.00;154153.72;4938945;28;20031;-82
2022/06/02 02:37:45;;;;;;;10.88;9.77;;;;;;;6.41;100.00;154143.50;4931694;28;20038;-80
2022/06/02 02:40:29;;;;;;;12.38;9.75;;;;;;;6.42;100.00;154146.09;4922403;28;20042;-78
2022/06/02 02:43:04;;;;;;;12.10;9.50;;;;;;;6.42;100.00;154144.78;4938411;28;20035;-80
2022/06/02 02:45:48;;;;;;;14.38;9.10;;;;;;;6.33;100.00;154123.06;4942458;28;20043;-79
2022/06/02 02:48:45;;;;;;;11.50;10.00;;;;;;;6.35;100.00;154128.16;4955956;28;20038;-79
2022/06/02 02:51:41;;;;;;;13.70;11.10;;;;;;;6.31;100.00;154117.94;4922494;28;20761;-80
2022/06/02 02:54:24;;;;;;;11.27;10.10;;;;;;;6.27;100.00;154107.66;4946610;28;20036;-78
2022/06/02 02:57:02;;;;;;;11.13;9.88;;;;;;;6.28;100.00;154110.25;4916928;28;20354;-78
2022/06/02 02:59:31;;;;;;;12.95;10.35;;;;;;;6.31;100.00;154116.63;4925434;28;20094;-79
2022/06/02 03:02:39;;;;;;;13.07;10.93;;;;;;;6.33;100.00;154121.75;4921800;29;20051;-78
2022/06/02 03:05:14;;;;;;;13.90;11.68;;;;;;;6.29;100.00;154111.50;4923957;29;20039;-78
2022/06/02 03:07:40;;;;;;;12.68;11.32;;;;;;;6.25;100.00;154102.56;4950690;28;20050;-79
2022/06/02 03:10:16;;;;;;;16.88;11.38;;;;;;;6.24;100.00;154100.03;4919712;28;20043;-79
2022/06/02 03:13:19;;;;;;;14.98;12.10;;;;;;;6.23;100.00;154098.75;4923866;28;20114;-77
2022/06/02 03:15:51;;;;;;;16.13;11.13;;;;;;;6.23;100.00;154097.44;4940100;28;20038;-77
2022/06/02 03:18:25;;;;;;;14.95;11.00;;;;;;;6.16;100.00;154080.84;4937790;29;20035;-78
2022/06/02 03:21:08;;;;;;;13.90;11.73;;;;;;;6.20;100.00;154089.78;4932784;28;20035;-77
2022/06/02 03:23:40;;;;;;;;;;;;;;;6.16;100.00;154080.84;4956864;28;20075;-78
2022/06/02 03:26:20;;;;;;;15.57;12.60;;;;;;;6.08;100.00;154059.06;4933589;29;19922;-78
2022/06/02 03:29:24;;;;;;;13.35;11.48;;;;;;;6.14;100.00;154075.72;4937677;28;20035;-79
2022/06/02 03:31:53;;;;;;;15.88;12.65;;;;;;;6.11;100.00;154066.75;4924613;28;20496;-77
2022/06/02 03:34:33;;;;;;;15.13;11.20;;;;;;;6.12;100.00;154070.63;4923934;29;20506;-78
2022/06/02 03:37:30;;;;;;;16.98;11.73;;;;;;;6.16;100.00;154079.53;4952310;28;20581;-78
2022/06/02 03:40:20;;;;;;;15.05;11.77;;;;;;;6.20;100.00;154089.78;4939109;28;20122;-80
2022/06/02 03:43:02;;;;;;;13.95;11.48;;;;;;;6.25;100.00;154102.56;4957226;28;20034;-77
2022/06/02 03:45:45;;;;;;;15.25;11.77;;;;;;;6.31;100.00;154116.63;4947930;28;20035;-79
2022/06/02 03:48:33;;;;;;;13.05;10.90;;;;;;;6.36;100.00;154129.44;4935538;29;20782;-77
2022/06/02 03:51:14;;;;;;;15.20;10.80;;;;;;;6.43;100.00;154148.63;4934902;28;20026;-78
2022/06/02 03:54:05;;;;;;;15.32;12.00;;;;;;;6.49;100.00;154161.44;4933573;28;20094;-78
2022/06/02 03:56:55;;;;;;;13.55;11.25;;;;;;;6.56;100.00;154179.34;4919689;28;20095;-79
2022/06/02 03:59:54;;;;;;;15.52;11.93;;;;;;;6.66;100.00;154203.66;4953153;28;20453;-80
2022/06/02 04:03:01;;;;;;;14.77;11.85;;;;;;;6.79;100.00;154238.19;4952081;28;20031;-79
2022/06/02 04:06:09;;;;;;;15.82;12.10;;;;;;;6.92;100.00;154270.19;4916702;28;20540;-81
2022/06/02 04:09:12;;;;;;;16.33;10.68;;;;;;;6.97;100.00;154281.75;4937557;28;20403;-78
2022/06/02 04:15:16;;;;;;;15.70;12.15;;;;;;;7.01;100.00;154293.25;4941266;28;20047;-78
2022/06/02 04:17:55;;;;;;;14.23;11.20;;;;;;;7.04;100.00;154298.34;4954426;28;20031;-78
2022/06/02 04:20:46;;;;;;;15.98;12.00;;;;;;;7.12;100.00;154320.13;4948207;28;20039;-78
2022/06/02 04:23:25;;;;;;;15.40;11.30;;;;;;;7.11;100.00;154317.56;4917096;29;20031;-76
2022/06/02 04:26:23;;;;;;;17.05;12.65;;;;;;;7.18;100.00;154335.47;4919563;28;20038;-78
2022/06/02 04:29:10;;;;;;;17.58;13.15;;;;;;;7.24;100.00;154349.56;4934395;28;20050;-77
2022/06/02 04:31:51;;;;;;;16.45;13.13;;;;;;;7.30;100.00;154364.91;4939952;28;20049;-79
2022/06/02 04:34:42;;;;;;;16.77;12.65;;;;;;;7.42;100.00;154394.34;4915549;29;20070;-77
2022/06/02 04:37:33;;;;;;;14.80;12.32;;;;;;;7.60;100.00;154440.44;4933960;28;20035;-78
2022/06/02 04:40:39;;;;;;;18.75;13.15;;;;;;;7.80;100.00;154489.13;4917569;28;20118;-78
2022/06/02 04:43:39;;;;;;;22.35;15.43;;;;;;;7.97;100.00;154532.66;4918679;29;20120;-78
2022/06/02 04:46:17;;;;;;;15.50;13.05;;;;;;;8.10;100.00;154564.69;4945247;28;20051;-77
2022/06/02 04:49:00;;;;;;;19.45;13.80;;;;;;;8.23;100.00;154595.41;4944881;28;20035;-80
2022/06/02 04:51:42;;;;;;;16.80;14.43;;;;;;;8.30;100.00;154614.63;4947619;28;20031;-78
2022/06/02 04:54:19;;;;;;;21.92;15.45;;;;;;;8.45;100.00;154650.56;4928153;29;20035;-78
2022/06/02 04:57:10;;;;;;;22.33;15.20;;;;;;;8.55;100.00;154677.47;4960216;28;20118;-78
2022/06/02 04:59:51;;;;;;;16.15;13.70;;;;;;;8.70;100.00;154714.66;4934524;28;20051;-79
2022/06/02 05:02:56;;;;;;;17.08;13.88;;;;;;;8.83;100.00;154745.38;4919424;29;20063;-76
2022/06/02 05:05:31;;;;;;;17.70;13.13;;;;;;;8.97;100.00;154781.28;4937232;28;20042;-77
2022/06/02 05:08:13;;;;;;;18.67;13.40;;;;;;;9.02;100.00;154794.06;4925967;28;20617;-78
2022/06/02 05:11:16;;;;;;;16.73;12.98;;;;;;;9.13;100.00;154820.97;4930288;28;20079;-80
2022/06/02 05:14:05;;;;;;;15.57;12.00;;;;;;;9.14;100.00;154824.84;4961090;28;20039;-78
2022/06/02 05:17:00;;;;;;;14.20;11.23;;;;;;;9.30;100.00;154864.56;4918935;28;20066;-78
2022/06/02 05:19:29;;;;;;;14.25;11.05;;;;;;;9.48;100.00;154909.44;4927740;28;20134;-79
2022/06/02 05:22:29;;;;;;;12.68;9.82;;;;;;;9.61;100.00;154940.25;4939347;28;20030;-79
2022/06/02 05:24:54;;;;;;;14.85;9.60;;;;;;;9.73;100.00;154970.97;4923054;28;20046;-78
2022/06/02 05:27:29;;;;;;;12.25;8.70;;;;;;;9.82;100.00;154994.06;4939609;29;20669;-78
2022/06/02 05:30:26;;;;;;;12.75;8.35;;;;;;;9.87;100.00;155005.59;4923926;28;20453;-78
2022/06/02 05:33:00;;;;;;;9.68;7.32;;;;;;;9.96;100.00;155028.69;4938734;28;20063;-79
2022/06/02 05:35:35;;;;;;;10.15;7.03;;;;;;;9.96;100.00;155028.69;4919556;28;20047;-80
2022/06/02 05:38:38;;;;;;;9.57;6.80;;;;;;;10.13;100.00;155071.00;4939306;28;20038;-79
2022/06/02 05:41:06;;;;;;;8.55;6.28;;;;;;;10.07;100.00;155056.91;4943680;28;20494;-79
2022/06/02 05:43:46;;;;;;;7.88;6.20;;;;;;;10.02;100.00;155044.09;4939286;28;20051;-80
2022/06/02 05:46:29;;;;;;;9.98;6.10;;;;;;;10.13;100.00;155071.00;4946989;28;20465;-79
2022/06/02 05:49:02;;;;;;;10.18;5.55;;;;;;;10.27;100.00;155105.66;4947334;29;20410;-78
2022/06/02 05:52:15;;;;;;;6.93;5.50;;;;;;;10.31;100.00;155115.97;4958299;28;20051;-78
2022/06/02 05:55:11;;;;;;;7.97;5.63;;;;;;;10.27;100.00;155105.66;4909845;28;20050;-79
2022/06/02 05:58:11;;;;;;;6.25;5.45;;;;;;;10.40;100.00;155137.78;4928716;28;20494;-78
2022/06/02 06:01:05;;;;;;;6.63;5.03;;;;;;;10.76;100.00;155228.88;4947336;28;20039;-80
2022/06/02 06:03:57;;;;;;;7.82;4.43;;;;;;;10.95;100.00;155276.34;4962495;28;20533;-78
2022/06/02 06:06:32;;;;;;;6.95;4.07;;;;;;;11.16;100.00;155327.66;4929758;28;20050;-78
2022/06/02 06:09:18;;;;;;;6.72;4.40;;;;;;;11.23;100.00;155345.66;4924217;28;20062;-76
2022/06/02 06:12:29;;;;;;;5.82;4.05;;;;;;;11.25;100.00;155350.78;4909647;28;20042;-77
2022/06/02 06:15:00;;;;;;;11.40;4.78;;;;;;;11.10;100.00;155313.56;4925579;28;20041;-77
2022/06/02 06:17:39;;;;;;;11.18;4.78;;;;;;;10.98;100.00;155282.72;4926174;28;20070;-78
2022/06/02 06:20:51;;;;;;;7.07;4.78;;;;;;;10.84;100.00;155249.38;4927005;28;20045;-76
2022/06/02 06:24:05;;;;;;;9.88;4.82;;;;;;;10.80;100.00;155237.84;4933946;29;20536;-77
2022/06/02 06:26:51;;;;;;;8.85;4.90;;;;;;;10.81;100.00;155240.38;4917031;29;20036;-77
2022/06/02 06:29:35;;;;;;;4.60;3.63;;;;;;;10.86;100.00;155254.50;4932055;28;20082;-77
2022/06/02 06:32:26;;;;;;;5.85;4.10;;;;;;;10.93;100.00;155271.22;4941909;28;20035;-76
2022/06/02 06:35:16;;;;;;;4.85;3.50;;;;;;;11.09;100.00;155310.97;4910256;28;20041;-78
2022/06/02 06:38:12;;;;;;;5.45;3.70;;;;;;;11.24;100.00;155348.19;4938908;28;20039;-77
2022/06/02 06:41:04;;;;;;;6.68;3.60;;;;;;;11.36;100.00;155379.00;4961519;28;20125;-78
2022/06/02 06:43:38;;;;;;;4.95;3.08;;;;;;;11.48;100.00;155409.81;4941917;28;20054;-78
2022/06/02 06:46:16;;;;;;;6.30;3.72;;;;;;;11.60;100.00;155438.03;4945989;28;20510;-77
2022/06/02 06:48:51;;;;;;;7.32;3.08;;;;;;;11.86;100.00;155503.53;4942047;28;20087;-77
2022/06/02 06:51:38;;;;;;;5.88;2.65;;;;;;;11.98;100.00;155534.41;4921966;29;20054;-78
2022/06/02 06:54:32;;;;;;;4.57;2.63;;;;;;;12.19;100.00;155585.78;4959674;28;20058;-78
2022/06/02 06:57:10;;;;;;;4.28;2.53;;;;;;;12.15;100.00;155575.47;4938983;28;20031;-80
2022/06/02 06:59:35;;;;;;;4.13;2.22;;;;;;;12.17;100.00;155580.66;4961759;28;20132;-77
2022/06/02 07:02:20;;;;;;;5.47;2.10;;;;;;;12.11;100.00;155566.53;4960647;28;20133;-77
2022/06/02 07:05:06;;;;;;;3.38;2.38;;;;;;;12.18;100.00;155584.47;4975861;28;20038;-77
2022/06/02 07:07:46;;;;;;;3.78;2.30;;;;;;;12.09;100.00;155561.34;4960792;28;20043;-78
2022/06/02 07:10:27;;;;;;;6.22;2.75;;;;;;;12.18;100.00;155583.19;4973498;28;20086;-77
2022/06/02 07:13:14;;;;;;;6.53;2.95;;;;;;;12.17;100.00;155581.91;4941973;29;20036;-77
2022/06/02 07:16:03;;;;;;;7.28;2.53;;;;;;;12.33;100.00;155620.44;4954733;28;20023;-76
2022/06/02 07:18:59;;;;;;;5.88;3.00;;;;;;;12.23;100.00;155596.06;4959883;28;20031;-77
2022/06/02 07:21:46;;;;;;;4.05;2.63;;;;;;;12.26;100.00;155605.03;4955700;28;20034;-77
2022/06/02 07:24:25;;;;;;;7.20;2.70;;;;;;;12.17;100.00;155580.66;4977851;28;20042;-77
2022/06/02 07:26:53;;;;;;;4.85;2.70;;;;;;;12.30;100.00;155612.72;4958509;28;20097;-77
2022/06/02 07:29:36;;;;;;;6.85;2.78;;;;;;;12.14;100.00;155572.94;4959753;28;20055;-77
2022/06/02 07:32:22;;;;;;;;;;;;;;;12.20;100.00;155588.31;4939108;28;20120;-77
2022/06/02 07:35:30;;;;;;;5.20;2.95;;;;;;;12.25;100.00;155601.19;4971199;28;19951;-76
2022/06/02 07:38:23;;;;;;;7.55;2.80;;;;;;;12.30;100.00;155614.03;4884299;29;20047;-79
2022/06/02 07:41:05;;;;;;;7.72;3.10;;;;;;;12.34;100.00;155622.97;4955867;28;20035;-76
2022/06/02 07:43:40;;;;;;;5.90;2.72;;;;;;;12.22;100.00;155594.78;4944005;28;20071;-77
2022/06/02 07:46:23;;;;;;;4.72;2.85;;;;;;;12.35;100.00;155625.56;4978840;28;20098;-78
2022/06/02 07:48:55;;;;;;;3.30;2.10;;;;;;;12.43;100.00;155647.44;4981154;28;20034;-77
2022/06/02 07:51:33;;;;;;;4.85;2.92;;;;;;;12.54;100.00;155674.38;4944641;28;20050;-77
2022/06/02 07:54:05;;;;;;;6.40;2.88;;;;;;;12.55;100.00;155675.69;4931591;29;20075;-80
2022/06/02 07:56:34;;;;;;;5.88;2.65;;;;;;;12.61;100.00;155691.09;4947274;28;20038;-77
2022/06/02 07:59:40;;;;;;;6.32;2.60;;;;;;;12.60;100.00;155688.50;4944912;28;20038;-77
2022/06/02 08:02:47;;;;;;;6.65;2.50;;;;;;;12.54;100.00;155674.38;4931697;29;20058;-77
2022/06/02 08:05:46;;;;;;;7.18;2.42;;;;;;;12.41;100.00;155640.97;4903423;29;20055;-78
2022/06/02 08:08:33;;;;;;;5.60;1.95;;;;;;;12.37;100.00;155630.72;4901281;29;20079;-81
2022/06/02 08:11:14;;;;;;;4.78;2.40;;;;;;;12.30;100.00;155612.72;4923873;29;20149;-79
2022/06/02 08:14:04;;;;;;;4.53;2.25;;;;;;;12.24;100.00;155599.91;4958438;28;20035;-78
2022/06/02 08:16:58;;;;;;;5.80;2.30;;;;;;;12.00;100.00;155538.28;4940760;28;20040;-78
2022/06/02 08:19:29;;;;;;;4.80;2.22;;;;;;;11.87;100.00;155507.38;4947114;28;20043;-78
2022/06/02 08:21:59;;;;;;;5.28;2.20;;;;;;;11.79;100.00;155486.84;4922189;29;20043;-78
2022/06/02 08:24:33;;;;;;;5.63;2.17;;;;;;;11.72;100.00;155468.88;4942915;28;20033;-78
2022/06/02 08:27:43;;;;;;;5.97;2.10;;;;;;;11.83;100.00;155497.13;4961570;28;20046;-80
2022/06/02 08:30:34;;;;;;;5.95;2.40;;;;;;;11.89;100.00;155511.25;4911309;29;20233;-79
2022/06/02 08:33:21;;;;;;;11.43;2.45;;;;;;;12.06;100.00;155553.66;4962202;28;20043;-78
2022/06/02 08:36:14;;;;;;;4.88;1.80;;;;;;;12.21;100.00;155592.19;4946429;28;20066;-78
2022/06/02 08:38:49;;;;;;;3.03;1.80;;;;;;;12.42;100.00;155643.56;4929335;28;20505;-79
2022/06/02 08:41:32;;;;;;;6.60;2.33;;;;;;;12.70;100.00;155712.94;4923291;29;20039;-80
2022/06/02 08:44:29;;;;;;;8.63;2.17;;;;;;;12.84;100.00;155750.16;4942458;28;20114;-78
2022/06/02 08:47:03;;;;;;;3.50;1.85;;;;;;;13.22;100.00;155845.28;4911437;29;20082;-77
2022/06/02 08:49:54;;;;;;;3.33;1.70;;;;;;;13.48;100.00;155909.56;4944508;28;20047;-79
2022/06/02 08:52:51;;;;;;;5.82;1.73;;;;;;;13.87;100.00;156007.25;4941953;29;20036;-78
2022/06/02 08:55:37;;;;;;;6.85;1.83;;;;;;;13.85;100.00;156000.84;4956967;28;20050;-76
2022/06/02 08:58:33;;;;;;;3.03;1.45;;;;;;;13.93;100.00;156022.69;4950046;28;20047;-77
2022/06/02 09:01:11;;;;;;;3.05;1.98;;;;;;;13.80;100.00;155989.25;4936612;29;20506;-77
2022/06/02 09:04:16;;;;;;;4.95;1.60;;;;;;;13.82;100.00;155994.41;4954698;28;20614;-78
2022/06/02 09:07:19;;;;;;;3.65;1.50;;;;;;;14.04;100.00;156048.41;4932304;28;20106;-78
2022/06/02 09:09:55;;;;;;;6.10;2.00;;;;;;;13.92;100.00;156020.13;4946152;28;20154;-79
2022/06/02 09:12:29;;;;;;;3.58;1.75;;;;;;;13.72;100.00;155968.72;4924816;29;20050;-77
2022/06/02 09:15:30;;;;;;;4.47;1.60;;;;;;;13.98;100.00;156035.56;4930002;29;20115;-79
2022/06/02 09:18:17;;;;;;;4.32;1.63;;;;;;;14.00;100.00;156039.41;4925128;29;20606;-78
2022/06/02 09:20:50;;;;;;;8.35;1.73;;;;;;;14.18;100.00;156085.72;4942643;28;20038;-79
2022/06/02 09:23:15;;;;;;;6.22;1.70;;;;;;;14.26;100.00;156105.00;4946389;29;20046;-77
2022/06/02 09:26:28;;;;;;;5.70;1.80;;;;;;;14.50;100.00;156165.41;4932055;28;20043;-77
2022/06/02 09:29:35;;;;;;;3.97;1.60;;;;;;;14.82;96.44;156243.91;4916447;28;20085;-78
2022/06/02 09:32:29;;;;;;;4.97;1.42;;;;;;;14.97;99.22;156283.81;4926839;28;20129;-77
2022/06/02 09:34:58;;;;;;;4.93;1.70;;;;;;;14.60;95.66;156191.19;4954904;28;20097;-77
2022/06/02 09:37:40;;;;;;;7.38;1.63;;;;;;;14.71;99.45;156216.91;4947949;28;20074;-78
2022/06/02 09:40:38;;;;;;;8.05;1.65;;;;;;;14.59;92.28;156188.59;4937057;28;20043;-78
2022/06/02 09:43:17;;;;;;;4.15;1.42;;;;;;;14.34;92.97;156125.56;4948199;28;20104;-77
2022/06/02 09:45:48;;;;;;;5.10;1.45;;;;;;;14.39;94.91;156138.41;4931718;28;20035;-78
2022/06/02 09:48:51;;;;;;;5.25;1.25;;;;;;;14.45;96.89;156151.25;4929578;29;20082;-77
2022/06/02 09:51:37;;;;;;;4.00;1.70;;;;;;;14.56;93.08;156180.88;4945305;28;20039;-78
2022/06/02 09:54:14;;;;;;;4.22;1.50;;;;;;;14.57;94.53;156183.47;4930023;28;20078;-77
2022/06/02 09:56:54;;;;;;;5.65;1.70;;;;;;;14.57;96.78;156182.19;4964608;28;20063;-79
2022/06/02 09:59:37;;;;;;;5.82;1.50;;;;;;;14.28;94.85;156108.81;4957356;28;20047;-76
2022/06/02 10:02:19;;;;;;;6.25;1.60;;;;;;;13.99;93.95;156036.81;4927053;28;20066;-78
2022/06/02 10:05:03;;;;;;;5.88;1.65;;;;;;;13.60;94.55;155940.44;4934816;28;20026;-78
2022/06/02 10:07:40;;;;;;;2.95;1.42;;;;;;;13.54;99.97;155923.69;4942847;28;20055;-78
2022/06/02 10:10:15;;;;;;;4.22;1.40;;;;;;;13.54;99.66;155923.69;4944786;28;20070;-78
2022/06/02 10:12:56;;;;;;;5.57;1.65;;;;;;;13.54;100.00;155925.03;4957974;28;20042;-79
2022/06/02 10:15:40;;;;;;;9.18;2.08;;;;;;;13.55;100.00;155926.28;4934855;29;20046;-78
2022/06/02 10:18:50;;;;;;;4.95;1.92;;;;;;;13.44;100.00;155900.56;4935184;28;20039;-78
2022/06/02 10:21:44;;;;;;;4.93;1.80;;;;;;;13.47;100.00;155907.00;4943439;29;20054;-77
2022/06/02 10:24:29;;;;;;;4.18;1.80;;;;;;;13.47;100.00;155905.69;4931100;28;20686;-78
2022/06/02 10:27:46;;;;;;;4.15;1.65;;;;;;;13.48;100.00;155909.56;4967547;23;20047;-76
2022/06/02 10:30:29;;;;;;;11.07;2.20;;;;;;;13.43;100.00;155896.75;4907470;29;20095;-76
2022/06/02 10:33:25;;;;;;;7.85;1.60;;;;;;;13.26;100.00;155854.28;4915255;29;20153;-75
2022/06/02 10:36:30;;;;;;;10.38;1.60;;;;;;;13.24;100.00;155850.41;4910507;29;20042;-77
2022/06/02 10:39:37;;;;;;;8.48;1.63;;;;;;;13.17;100.00;155832.41;4914417;28;20045;-77
2022/06/02 10:42:06;;;;;;;5.05;1.60;;;;;;;13.17;100.00;155832.41;4902092;29;20033;-77
2022/06/02 10:45:07;;;;;;;7.32;1.58;;;;;;;13.25;100.00;155851.69;4923898;28;20147;-77
2022/06/02 10:47:55;;;;;;;7.85;1.92;;;;;;;13.52;100.00;155918.56;4917047;28;20078;-75
2022/06/02 10:50:24;;;;;;;5.50;1.42;;;;;;;14.10;100.00;156063.84;4921606;29;20047;-76
2022/06/02 10:53:11;;;;;;;4.22;1.42;;;;;;;14.93;99.91;156272.22;4925532;29;20515;-76
2022/06/02 10:56:13;;;;;;;1.83;1.33;;;;;;;15.52;91.23;156420.16;4918396;28;20066;-78
2022/06/02 10:59:20;;;;;;;3.63;1.50;;;;;;;15.75;90.97;156478.16;4910447;29;20062;-75
2022/06/02 11:02:01;;;;;;;4.25;1.33;;;;;;;15.67;88.81;156458.81;4936237;28;20027;-75
2022/06/02 11:04:51;;;;;;;4.20;1.45;;;;;;;15.65;91.26;156453.66;4904330;28;20047;-76
2022/06/02 11:07:38;;;;;;;11.55;2.10;;;;;;;15.65;89.56;156453.66;4935514;28;20054;-76
2022/06/02 11:10:25;;;;;;;5.18;1.80;;;;;;;15.58;93.42;156436.91;4926086;29;20043;-78
2022/06/02 11:13:26;;;;;;;7.55;1.40;;;;;;;15.60;95.07;156440.78;4934498;29;20045;-76
2022/06/02 11:16:27;;;;;;;2.75;1.08;;;;;;;16.01;94.13;156543.81;4829024;29;20056;-77
2022/06/02 11:19:25;;;;;;;7.15;1.30;;;;;;;16.20;88.21;156591.44;4892986;28;20270;-75
2022/06/02 11:22:16;;;;;;;4.18;1.20;;;;;;;16.05;88.25;156554.09;4904684;29;20504;-75
2022/06/02 11:25:01;;;;;;;2.42;1.17;;;;;;;15.93;85.22;156524.44;4935556;28;20051;-75
2022/06/02 11:27:49;;;;;;;4.82;1.25;;;;;;;15.71;86.08;156467.81;4923721;28;20040;-78
2022/06/02 11:30:14;;;;;;;3.22;1.20;;;;;;;15.57;89.47;156433.03;4926449;29;20059;-77
2022/06/02 11:33:08;;;;;;;4.70;1.20;;;;;;;15.28;95.21;156359.72;4934284;28;20099;-75
2022/06/02 11:35:57;;;;;;;2.92;1.35;;;;;;;15.34;91.02;156376.44;4925847;29;20057;-78
2022/06/02 11:39:00;;;;;;;5.20;1.25;;;;;;;15.30;89.44;156364.88;4955666;29;20055;-76
2022/06/02 11:41:47;;;;;;;8.32;1.52;;;;;;;15.17;95.71;156332.69;4945258;29;20050;-79
2022/06/02 11:44:24;;;;;;;7.32;1.50;;;;;;;14.97;94.80;156282.50;4928137;29;20035;-78
2022/06/02 11:47:12;;;;;;;6.22;1.35;;;;;;;14.84;97.07;156249.06;4930369;29;20066;-77
2022/06/02 11:49:51;;;;;;;3.95;1.17;;;;;;;14.78;93.03;156234.91;4926503;28;20058;-77
2022/06/02 11:52:35;;;;;;;4.47;1.35;;;;;;;14.99;100.00;156288.97;4944628;28;20038;-80
2022/06/02 11:55:19;;;;;;;5.28;1.40;;;;;;;15.00;97.46;156290.25;4914952;29;20050;-77
2022/06/02 11:58:06;;;;;;;2.85;1.40;;;;;;;14.93;93.48;156272.22;4945638;28;20046;-77
2022/06/02 12:01:02;;;;;;;3.80;1.50;;;;;;;15.04;98.91;156300.53;4943162;28;20046;-78
2022/06/02 12:03:58;;;;;;;2.42;1.17;;;;;;;15.29;92.40;156362.28;4923829;28;20459;-75
2022/06/02 12:07:01;;;;;;;5.93;1.40;;;;;;;15.51;87.06;156418.88;4934796;28;20110;-76
2022/06/02 12:09:59;;;;;;;3.97;1.33;;;;;;;15.74;88.45;156476.84;4948609;29;20062;-76
2022/06/02 12:12:41;;;;;;;4.50;1.50;;;;;;;15.93;96.02;156523.19;4930995;29;20042;-75
2022/06/02 12:15:31;;;;;;;2.83;1.38;;;;;;;16.23;85.58;156599.13;4925554;29;20067;-77
2022/06/02 12:18:19;;;;;;;5.95;1.42;;;;;;;16.15;83.57;156578.53;4920223;29;20118;-77
2022/06/02 12:21:24;;;;;;;2.97;1.30;;;;;;;16.86;87.95;156757.56;4921464;29;20046;-76
2022/06/02 12:24:01;;;;;;;7.43;1.63;;;;;;;17.63;83.00;156949.47;4931362;29;20466;-75
2022/06/02 12:26:46;;;;;;;8.32;1.55;;;;;;;17.93;77.26;157025.53;4938275;28;20060;-76
2022/06/02 12:29:39;;;;;;;5.72;1.23;;;;;;;18.12;77.09;157073.25;4920355;29;20035;-76
2022/06/02 12:32:30;;;;;;;7.68;1.80;;;;;;;17.91;77.92;157020.38;4932404;29;20050;-77
2022/06/02 12:35:07;;;;;;;5.22;1.10;;;;;;;18.53;74.03;157175.06;4942685;29;20404;-78
2022/06/02 12:38:21;;;;;;;3.55;1.15;;;;;;;18.72;77.01;157222.75;4924261;29;20070;-76
2022/06/02 12:41:05;;;;;;;;;;;;;;;18.59;73.85;157191.84;4894346;29;20039;-75
2022/06/02 12:43:57;;;;;;;4.32;1.23;;;;;;;18.64;71.52;157203.41;4959406;28;19918;-76
2022/06/02 12:46:41;;;;;;;4.38;1.30;;;;;;;18.61;74.03;157195.66;4932896;28;20117;-78
2022/06/02 12:49:25;;;;;;;4.43;1.02;;;;;;;19.08;70.80;157313.06;4915754;28;20368;-76
2022/06/02 12:52:27;;;;;;;4.25;1.17;;;;;;;19.80;70.37;157494.97;4924888;29;20570;-77
2022/06/02 12:55:06;;;;;;;4.72;1.13;;;;;;;19.63;70.60;157452.34;4940426;29;20046;-77